createdAt,value
2022-12-01T00:01:34.263Z,7.18
2022-12-01T00:04:02.269Z,7.13
2022-12-01T00:06:29.937Z,7.11
2022-12-01T00:09:19.686Z,7.08
2022-12-01T00:11:48.738Z,7.03
2022-12-01T00:14:17.571Z,7.02
2022-12-01T00:16:45.942Z,7.01
2022-12-01T00:19:14.212Z,7.02
2022-12-01T00:21:41.933Z,7.07
2022-12-01T00:24:11.894Z,7.09
2022-12-01T00:26:40.088Z,7.09
2022-12-01T00:29:09.362Z,7.13
2022-12-01T00:31:36.971Z,7.22
2022-12-01T00:34:09.687Z,7.35
2022-12-01T00:36:39.506Z,7.41
2022-12-01T00:39:08.742Z,7.43
2022-12-01T00:41:36.394Z,7.46
2022-12-01T00:44:04.910Z,7.60
2022-12-01T00:46:32.587Z,7.77
2022-12-01T00:49:00.494Z,7.81
2022-12-01T00:51:28.179Z,7.80
2022-12-01T00:53:56.251Z,7.71
2022-12-01T00:56:24.028Z,7.73
2022-12-01T00:58:51.877Z,7.74
2022-12-01T01:01:19.727Z,7.75
2022-12-01T01:03:48.045Z,7.74
2022-12-01T01:06:16.647Z,7.71
2022-12-01T01:08:46.290Z,7.61
2022-12-01T01:11:13.963Z,7.61
2022-12-01T01:13:42.029Z,7.65
2022-12-01T01:16:20.139Z,7.66
2022-12-01T01:18:49.177Z,7.70
2022-12-01T01:21:21.074Z,7.63
2022-12-01T01:23:50.736Z,7.60
2022-12-01T01:26:21.151Z,7.67
2022-12-01T01:28:50.055Z,7.68
2022-12-01T01:31:23.638Z,7.68
2022-12-01T01:33:51.995Z,7.65
2022-12-01T01:36:20.104Z,7.78
2022-12-01T01:38:51.654Z,7.90
2022-12-01T01:41:21.066Z,7.95
2022-12-01T01:44:03.153Z,7.92
2022-12-01T01:46:34.079Z,7.76
2022-12-01T01:49:08.490Z,7.68
2022-12-01T01:51:43.690Z,7.58
2022-12-01T01:54:29.451Z,7.49
2022-12-01T01:57:00.197Z,7.48
2022-12-01T01:59:47.277Z,7.45
2022-12-01T02:02:15.516Z,7.47
2022-12-01T02:04:51.156Z,7.47
2022-12-01T02:07:19.886Z,7.51
2022-12-01T02:09:48.142Z,7.47
2022-12-01T02:12:38.410Z,7.44
2022-12-01T02:15:44.513Z,7.45
2022-12-01T02:18:40.027Z,7.40
2022-12-01T02:21:32.138Z,7.34
2022-12-01T02:24:46.832Z,7.29
2022-12-01T02:27:57.723Z,7.22
2022-12-01T02:31:08.922Z,7.19
2022-12-01T02:33:52.600Z,7.17
2022-12-01T02:36:37.289Z,7.24
2022-12-01T02:39:14.649Z,7.29
2022-12-01T02:41:59.009Z,7.32
2022-12-01T02:44:50.063Z,7.34
2022-12-01T02:47:19.638Z,7.28
2022-12-01T02:49:51.566Z,7.30
2022-12-01T02:52:22.319Z,7.31
2022-12-01T02:54:51.581Z,7.28
2022-12-01T02:57:19.916Z,7.21
2022-12-01T02:59:54.546Z,7.17
2022-12-01T03:02:56.297Z,7.19
2022-12-01T03:06:18.123Z,7.15
2022-12-01T03:09:12.924Z,7.17
2022-12-01T03:11:58.709Z,7.14
2022-12-01T03:15:05.453Z,7.11
2022-12-01T03:18:06.916Z,7.07
2022-12-01T03:20:58.405Z,7.09
2022-12-01T03:23:31.654Z,7.13
2022-12-01T03:26:07.147Z,7.22
2022-12-01T03:28:42.670Z,7.26
2022-12-01T03:31:17.309Z,7.29
2022-12-01T03:33:54.764Z,7.28
2022-12-01T03:36:35.622Z,7.26
2022-12-01T03:39:11.450Z,7.19
2022-12-01T03:41:47.108Z,7.16
2022-12-01T03:44:25.813Z,7.23
2022-12-01T03:47:14.588Z,7.30
2022-12-01T03:49:44.118Z,7.39
2022-12-01T03:52:37.973Z,7.34
2022-12-01T03:55:19.872Z,7.30
2022-12-01T03:58:23.065Z,7.33
2022-12-01T04:00:57.643Z,7.33
2022-12-01T04:03:26.779Z,7.29
2022-12-01T04:05:55.616Z,7.31
2022-12-01T04:08:23.175Z,7.27
2022-12-01T04:10:51.303Z,7.22
2022-12-01T04:13:25.898Z,7.26
2022-12-01T04:15:55.515Z,7.26
2022-12-01T04:18:23.125Z,7.26
2022-12-01T04:20:51.272Z,7.19
2022-12-01T04:23:37.287Z,7.15
2022-12-01T04:26:06.689Z,7.11
2022-12-01T04:28:35.651Z,7.11
2022-12-01T04:31:03.677Z,7.19
2022-12-01T04:33:31.289Z,7.32
2022-12-01T04:36:00.747Z,7.32
2022-12-01T04:38:30.746Z,7.28
2022-12-01T04:40:59.445Z,7.28
2022-12-01T04:43:26.931Z,7.28
2022-12-01T04:45:54.873Z,7.31
2022-12-01T04:48:22.432Z,7.29
2022-12-01T04:50:50.393Z,7.46
2022-12-01T04:53:17.883Z,7.76
2022-12-01T04:55:45.847Z,8.17
2022-12-01T04:58:13.398Z,8.62
2022-12-01T05:00:41.231Z,8.91
2022-12-01T05:03:13.659Z,8.96
2022-12-01T05:05:43.085Z,8.89
2022-12-01T05:08:11.142Z,8.70
2022-12-01T05:10:39.205Z,8.50
2022-12-01T05:13:07.157Z,8.37
2022-12-01T05:15:35.075Z,8.27
2022-12-01T05:18:02.601Z,8.15
2022-12-01T05:20:49.154Z,7.98
2022-12-01T05:23:17.277Z,7.72
2022-12-01T05:25:45.167Z,7.60
2022-12-01T05:28:12.731Z,7.52
2022-12-01T05:30:40.990Z,7.38
2022-12-01T05:33:08.783Z,7.32
2022-12-01T05:35:36.902Z,7.34
2022-12-01T05:38:07.955Z,7.35
2022-12-01T05:40:37.294Z,7.28
2022-12-01T05:43:05.116Z,7.25
2022-12-01T05:45:34.542Z,7.23
2022-12-01T05:48:03.149Z,7.18
2022-12-01T05:50:31.575Z,7.13
2022-12-01T05:52:59.242Z,7.12
2022-12-01T05:55:27.182Z,7.14
2022-12-01T05:57:54.926Z,7.16
2022-12-01T06:00:22.931Z,7.11
2022-12-01T06:02:50.605Z,7.08
2022-12-01T06:05:18.572Z,7.10
2022-12-01T06:07:46.266Z,7.10
2022-12-01T06:10:14.371Z,7.12
2022-12-01T06:12:45.527Z,7.13
2022-12-01T06:15:14.250Z,7.16
2022-12-01T06:17:41.855Z,7.18
2022-12-01T06:20:11.243Z,7.24
2022-12-01T06:22:38.877Z,7.25
2022-12-01T06:25:07.622Z,7.30
2022-12-01T06:27:35.181Z,7.46
2022-12-01T06:30:04.659Z,7.58
2022-12-01T06:32:32.535Z,7.61
2022-12-01T06:35:00.414Z,7.57
2022-12-01T06:37:28.808Z,7.60
2022-12-01T06:39:56.719Z,7.72
2022-12-01T06:42:24.266Z,7.81
2022-12-01T06:44:52.112Z,7.81
2022-12-01T06:47:19.695Z,7.75
2022-12-01T06:49:47.945Z,7.70
2022-12-01T06:52:15.715Z,7.66
2022-12-01T06:54:43.530Z,7.61
2022-12-01T06:57:11.540Z,7.56
2022-12-01T06:59:40.284Z,7.57
2022-12-01T07:02:13.609Z,7.59
2022-12-01T07:04:41.694Z,7.59
2022-12-01T07:07:10.111Z,7.56
2022-12-01T07:09:38.193Z,7.57
2022-12-01T07:12:08.056Z,7.60
2022-12-01T07:14:36.401Z,7.62
2022-12-01T07:17:04.244Z,7.60
2022-12-01T07:19:32.201Z,7.61
2022-12-01T07:21:59.628Z,7.67
2022-12-01T07:24:28.266Z,7.78
2022-12-01T07:26:56.009Z,7.84
2022-12-01T07:29:23.901Z,7.92
2022-12-01T07:31:51.480Z,7.94
2022-12-01T07:34:19.448Z,7.96
2022-12-01T07:36:46.975Z,8.01
2022-12-01T07:39:14.907Z,8.02
2022-12-01T07:41:42.519Z,7.99
2022-12-01T07:44:11.296Z,8.01
2022-12-01T07:46:38.959Z,8.10
2022-12-01T07:49:08.508Z,8.15
2022-12-01T07:51:36.225Z,8.21
2022-12-01T07:54:06.445Z,8.29
2022-12-01T07:56:34.740Z,8.28
2022-12-01T07:59:02.793Z,8.27
2022-12-01T08:01:30.513Z,8.28
2022-12-01T08:04:00.613Z,8.27
2022-12-01T08:06:28.381Z,8.29
2022-12-01T08:08:56.335Z,8.39
2022-12-01T08:11:29.309Z,8.42
2022-12-01T08:13:57.793Z,8.46
2022-12-01T08:16:25.945Z,8.52
2022-12-01T08:18:54.514Z,8.54
2022-12-01T08:21:24.177Z,8.59
2022-12-01T08:23:57.794Z,8.61
2022-12-01T08:26:26.827Z,8.70
2022-12-01T08:28:54.878Z,8.75
2022-12-01T08:31:32.102Z,8.78
2022-12-01T08:34:00.274Z,8.84
2022-12-01T08:36:28.184Z,8.90
2022-12-01T08:38:56.659Z,9.02
2022-12-01T08:41:25.185Z,9.09
2022-12-01T08:43:58.408Z,9.08
2022-12-01T08:46:32.166Z,9.15
2022-12-01T08:49:00.710Z,9.11
2022-12-01T08:51:28.824Z,9.03
2022-12-01T08:53:59.661Z,9.05
2022-12-01T08:56:38.525Z,8.99
2022-12-01T08:59:07.163Z,8.73
2022-12-01T09:01:35.358Z,8.55
2022-12-01T09:04:07.792Z,8.42
2022-12-01T09:06:43.509Z,8.35
2022-12-01T09:09:19.508Z,8.37
2022-12-01T09:11:48.602Z,8.42
2022-12-01T09:14:18.629Z,8.42
2022-12-01T09:16:49.871Z,8.42
2022-12-01T09:19:24.188Z,8.36
2022-12-01T09:21:52.947Z,8.31
2022-12-01T09:24:20.792Z,8.35
2022-12-01T09:26:48.355Z,8.34
2022-12-01T09:29:17.347Z,8.32
2022-12-01T09:31:45.740Z,8.31
2022-12-01T09:34:18.283Z,8.27
2022-12-01T09:36:47.684Z,8.24
2022-12-01T09:39:20.863Z,8.33
2022-12-01T09:41:54.601Z,8.31
2022-12-01T09:44:57.245Z,8.31
2022-12-01T09:47:31.452Z,8.37
2022-12-01T09:50:24.083Z,8.53
2022-12-01T09:53:03.795Z,8.64
2022-12-01T09:55:34.016Z,8.68
2022-12-01T09:58:05.722Z,8.64
2022-12-01T10:00:42.309Z,8.74
2022-12-01T10:03:18.556Z,8.84
2022-12-01T10:09:25.234Z,8.96
2022-12-01T10:12:02.054Z,8.90
2022-12-01T10:14:33.903Z,8.81
2022-12-01T10:17:38.274Z,8.61
2022-12-01T10:20:21.506Z,8.42
2022-12-01T10:23:28.789Z,8.27
2022-12-01T10:26:17.829Z,8.18
2022-12-01T10:29:26.011Z,8.06
2022-12-01T10:32:03.050Z,7.97
2022-12-01T10:34:37.644Z,7.96
2022-12-01T10:37:05.870Z,8.00
2022-12-01T10:39:55.306Z,8.00
2022-12-01T10:42:37.469Z,7.99
2022-12-01T10:45:14.879Z,7.95
2022-12-01T10:48:11.052Z,7.94
2022-12-01T10:50:39.698Z,7.89
2022-12-01T10:53:26.407Z,7.88
2022-12-01T10:56:16.438Z,7.90
2022-12-01T10:58:52.481Z,7.90
2022-12-01T11:01:37.076Z,7.89
2022-12-01T11:04:47.874Z,7.84
2022-12-01T11:07:46.161Z,7.79
2022-12-01T11:10:26.551Z,7.75
2022-12-01T11:12:56.478Z,7.77
2022-12-01T11:15:56.805Z,7.90
2022-12-01T11:18:39.226Z,7.97
2022-12-01T11:21:15.069Z,8.03
2022-12-01T11:23:48.972Z,8.04
2022-12-01T11:26:33.506Z,8.12
2022-12-01T11:29:28.559Z,8.12
2022-12-01T11:31:57.781Z,8.05
2022-12-01T11:34:38.053Z,7.96
2022-12-01T11:37:15.791Z,7.84
2022-12-01T11:39:47.962Z,7.78
2022-12-01T11:42:24.552Z,7.75
2022-12-01T11:45:21.356Z,7.74
2022-12-01T11:48:06.626Z,7.74
2022-12-01T11:50:39.701Z,7.78
2022-12-01T11:53:32.052Z,7.82
2022-12-01T11:56:29.002Z,7.84
2022-12-01T11:59:13.225Z,7.90
2022-12-01T12:02:42.039Z,7.89
2022-12-01T12:05:27.318Z,7.84
2022-12-01T12:08:01.190Z,7.80
2022-12-01T12:10:28.651Z,7.79
2022-12-01T12:13:37.224Z,7.77
2022-12-01T12:16:30.302Z,7.73
2022-12-01T12:20:06.174Z,7.72
2022-12-01T12:23:03.976Z,7.67
2022-12-01T12:26:03.794Z,7.65
2022-12-01T12:29:36.280Z,7.58
2022-12-01T12:32:47.193Z,7.55
2022-12-01T12:35:49.940Z,7.52
2022-12-01T12:38:54.618Z,7.47
2022-12-01T12:42:01.300Z,7.48
2022-12-01T12:44:51.781Z,7.49
2022-12-01T12:47:56.588Z,7.47
2022-12-01T12:50:48.223Z,7.48
2022-12-01T12:53:28.103Z,7.46
2022-12-01T12:56:04.833Z,7.42
2022-12-01T12:58:50.021Z,7.43
2022-12-01T13:01:44.699Z,7.38
2022-12-01T13:04:50.640Z,7.35
2022-12-01T13:07:50.267Z,7.30
2022-12-01T13:10:38.118Z,7.30
2022-12-01T13:13:59.610Z,7.32
2022-12-01T13:16:43.128Z,7.28
2022-12-01T13:19:37.611Z,7.30
2022-12-01T13:22:07.951Z,7.28
2022-12-01T13:24:36.073Z,7.32
2022-12-01T13:27:11.385Z,7.39
2022-12-01T13:29:49.763Z,7.38
2022-12-01T13:32:40.474Z,7.39
2022-12-01T13:35:35.069Z,7.38
2022-12-01T13:38:34.448Z,7.34
2022-12-01T13:41:18.235Z,7.34
2022-12-01T13:44:21.052Z,7.34
2022-12-01T13:46:49.113Z,7.34
2022-12-01T13:49:42.711Z,7.34
2022-12-01T13:52:23.352Z,7.42
2022-12-01T13:55:09.506Z,7.49
2022-12-01T13:57:57.487Z,7.67
2022-12-01T14:00:29.937Z,7.67
2022-12-01T14:03:13.217Z,7.63
2022-12-01T14:05:40.794Z,7.63
2022-12-01T14:09:04.700Z,7.56
2022-12-01T14:11:34.626Z,7.48
2022-12-01T14:14:25.945Z,7.44
2022-12-01T14:16:58.731Z,7.40
2022-12-01T14:19:37.658Z,7.42
2022-12-01T14:22:07.586Z,7.41
2022-12-01T14:24:42.258Z,7.39
2022-12-01T14:27:13.968Z,7.33
2022-12-01T14:29:43.540Z,7.30
2022-12-01T14:32:17.056Z,7.22
2022-12-01T14:34:45.304Z,7.18
2022-12-01T14:37:22.408Z,7.19
2022-12-01T14:39:58.075Z,7.24
2022-12-01T14:42:49.914Z,7.26
2022-12-01T14:45:39.122Z,7.24
2022-12-01T14:48:17.232Z,7.24
2022-12-01T14:50:51.861Z,7.22
2022-12-01T14:53:27.297Z,7.25
2022-12-01T14:56:08.510Z,7.22
2022-12-01T14:58:37.249Z,7.23
2022-12-01T15:01:12.790Z,7.27
2022-12-01T15:03:56.993Z,7.31
2022-12-01T15:06:28.220Z,7.34
2022-12-01T15:09:36.039Z,7.46
2022-12-01T15:12:07.813Z,7.62
2022-12-01T15:14:39.416Z,7.69
2022-12-01T15:17:09.007Z,7.79
2022-12-01T15:19:40.205Z,7.90
2022-12-01T15:22:18.151Z,8.06
2022-12-01T15:24:47.117Z,8.09
2022-12-01T15:27:31.838Z,8.05
2022-12-01T15:30:04.577Z,8.06
2022-12-01T15:32:39.725Z,8.02
2022-12-01T15:35:23.151Z,8.00
2022-12-01T15:37:52.707Z,8.06
2022-12-01T15:43:33.057Z,8.14
2022-12-01T15:46:18.833Z,8.13
2022-12-01T15:48:46.824Z,8.10
2022-12-01T15:51:27.712Z,7.97
2022-12-01T15:54:01.406Z,7.85
2022-12-01T15:56:40.606Z,7.75
2022-12-01T15:59:12.922Z,7.63
2022-12-01T16:01:43.765Z,7.52
2022-12-01T16:04:25.092Z,7.49
2022-12-01T16:07:07.056Z,7.47
2022-12-01T16:10:02.905Z,7.52
2022-12-01T16:12:36.817Z,7.53
2022-12-01T16:15:15.494Z,7.55
2022-12-01T16:17:49.902Z,7.65
2022-12-01T16:20:25.055Z,7.64
2022-12-01T16:23:03.144Z,7.67
2022-12-01T16:25:43.623Z,7.69
2022-12-01T16:28:37.749Z,7.63
2022-12-01T16:31:11.274Z,7.58
2022-12-01T16:33:42.462Z,7.55
2022-12-01T16:36:10.409Z,7.61
2022-12-01T16:38:38.615Z,7.69
2022-12-01T16:41:38.273Z,7.80
2022-12-01T16:44:27.586Z,7.91
2022-12-01T16:46:54.254Z,7.96
2022-12-01T16:49:22.261Z,8.01
2022-12-01T16:51:56.130Z,8.04
2022-12-01T16:54:25.411Z,8.08
2022-12-01T16:56:54.162Z,8.10
2022-12-01T16:59:22.297Z,8.05
2022-12-01T17:01:50.224Z,7.99
2022-12-01T17:04:18.174Z,7.96
2022-12-01T17:06:46.099Z,7.98
2022-12-01T17:09:14.062Z,7.99
2022-12-01T17:11:42.286Z,7.99
2022-12-01T17:14:10.243Z,7.90
2022-12-01T17:16:38.592Z,7.83
2022-12-01T17:19:06.298Z,7.77
2022-12-01T17:21:34.859Z,7.78
2022-12-01T17:24:02.404Z,7.74
2022-12-01T17:26:30.658Z,7.77
2022-12-01T17:28:58.210Z,7.79
2022-12-01T17:31:26.468Z,7.82
2022-12-01T17:33:54.777Z,7.77
2022-12-01T17:36:22.769Z,7.71
2022-12-01T17:38:51.112Z,7.67
2022-12-01T17:41:26.159Z,7.66
2022-12-01T17:43:53.891Z,7.63
2022-12-01T17:46:21.973Z,7.64
2022-12-01T17:48:49.934Z,7.59
2022-12-01T17:51:17.857Z,7.55
2022-12-01T17:53:45.656Z,7.45
2022-12-01T17:56:17.019Z,7.38
2022-12-01T17:58:45.084Z,7.36
2022-12-01T18:01:18.001Z,7.30
2022-12-01T18:03:48.087Z,7.21
2022-12-01T18:06:21.704Z,7.11
2022-12-01T18:08:49.764Z,7.00
2022-12-01T18:11:19.148Z,6.91
2022-12-01T18:13:54.135Z,6.86
2022-12-01T18:16:33.118Z,6.85
2022-12-01T18:19:05.381Z,6.85
2022-12-01T18:21:35.078Z,6.81
2022-12-01T18:24:05.787Z,6.76
2022-12-01T18:26:44.221Z,6.77
2022-12-01T18:29:18.746Z,6.67
2022-12-01T18:31:48.318Z,6.64
2022-12-01T18:34:19.335Z,6.60
2022-12-01T18:36:48.114Z,6.52
2022-12-01T18:39:16.200Z,6.45
2022-12-01T18:41:44.423Z,6.44
2022-12-01T18:44:12.851Z,6.42
2022-12-01T18:46:40.968Z,6.39
2022-12-01T18:49:09.195Z,6.33
2022-12-01T18:51:38.908Z,6.30
2022-12-01T18:54:09.219Z,6.33
2022-12-01T18:56:37.474Z,6.44
2022-12-01T18:59:07.935Z,6.61
2022-12-01T19:01:40.409Z,6.80
2022-12-01T19:04:09.813Z,6.81
2022-12-01T19:06:39.075Z,6.81
2022-12-01T19:09:10.329Z,6.72
2022-12-01T19:11:40.599Z,6.69
2022-12-01T19:14:15.737Z,6.68
2022-12-01T19:16:44.933Z,6.66
2022-12-01T19:19:12.693Z,6.66
2022-12-01T19:21:40.851Z,6.68
2022-12-01T19:24:08.901Z,6.64
2022-12-01T19:26:37.168Z,6.63
2022-12-01T19:29:04.925Z,6.55
2022-12-01T19:31:34.014Z,6.51
2022-12-01T19:34:04.425Z,6.50
2022-12-01T19:36:32.588Z,6.51
2022-12-01T19:39:04.044Z,6.50
2022-12-01T19:41:38.679Z,6.54
2022-12-01T19:44:07.060Z,6.56
2022-12-01T19:46:35.026Z,6.60
2022-12-01T19:49:03.767Z,6.62
2022-12-01T19:51:38.717Z,6.61
2022-12-01T19:54:13.457Z,6.57
2022-12-01T19:56:41.431Z,6.54
2022-12-01T19:59:11.365Z,6.54
2022-12-01T20:01:40.507Z,6.57
2022-12-01T20:04:08.437Z,6.54
2022-12-01T20:06:38.067Z,6.52
2022-12-01T20:09:07.331Z,6.52
2022-12-01T20:11:35.861Z,6.54
2022-12-01T20:14:08.025Z,6.58
2022-12-01T20:16:36.373Z,6.59
2022-12-01T20:19:05.738Z,6.61
2022-12-01T20:21:42.350Z,6.62
2022-12-01T20:24:17.041Z,6.64
2022-12-01T20:26:53.110Z,6.70
2022-12-01T20:29:27.458Z,6.77
2022-12-01T20:31:58.472Z,6.79
2022-12-01T20:34:33.907Z,6.77
2022-12-01T20:37:02.505Z,6.80
2022-12-01T20:39:32.520Z,6.85
2022-12-01T20:42:00.559Z,6.87
2022-12-01T20:44:28.185Z,6.86
2022-12-01T20:46:56.182Z,6.90
2022-12-01T20:49:24.212Z,6.96
2022-12-01T20:51:52.162Z,6.98
2022-12-01T20:54:29.560Z,7.00
2022-12-01T20:56:59.203Z,6.99
2022-12-01T20:59:27.971Z,6.98
2022-12-01T21:01:56.320Z,6.96
2022-12-01T21:04:23.937Z,6.93
2022-12-01T21:06:55.779Z,6.90
2022-12-01T21:09:23.351Z,6.86
2022-12-01T21:12:10.283Z,6.81
2022-12-01T21:15:12.159Z,6.80
2022-12-01T21:17:46.725Z,6.78
2022-12-01T21:20:30.952Z,6.78
2022-12-01T21:23:12.899Z,6.79
2022-12-01T21:25:41.781Z,6.76
2022-12-01T21:28:24.162Z,6.77
2022-12-01T21:31:01.985Z,6.73
2022-12-01T21:33:36.802Z,6.67
2022-12-01T21:36:19.608Z,6.66
2022-12-01T21:38:54.827Z,6.62
2022-12-01T21:41:27.822Z,6.60
2022-12-01T21:44:01.273Z,6.59
2022-12-01T21:46:29.830Z,6.60
2022-12-01T21:48:57.796Z,6.60
2022-12-01T21:51:26.129Z,6.60
2022-12-01T21:53:56.553Z,6.59
2022-12-01T21:56:28.434Z,6.57
2022-12-01T21:59:02.692Z,6.58
2022-12-01T22:01:32.196Z,6.60
2022-12-01T22:04:05.651Z,6.59
2022-12-01T22:06:37.924Z,6.59
2022-12-01T22:09:30.942Z,6.62
2022-12-01T22:12:20.251Z,6.63
2022-12-01T22:14:48.989Z,6.63
2022-12-01T22:17:22.020Z,6.66
2022-12-01T22:20:02.392Z,6.63
2022-12-01T22:22:32.855Z,6.70
2022-12-01T22:25:20.202Z,6.74
2022-12-01T22:27:47.768Z,6.72
2022-12-01T22:30:24.208Z,6.67
2022-12-01T22:33:01.062Z,6.65
2022-12-01T22:35:48.398Z,6.61
2022-12-01T22:38:35.231Z,6.55
2022-12-01T22:41:15.877Z,6.50
2022-12-01T22:44:04.926Z,6.47
2022-12-01T22:46:39.960Z,6.49
2022-12-01T22:49:10.272Z,6.51
2022-12-01T22:52:01.724Z,6.53
2022-12-01T22:54:39.060Z,6.52
2022-12-01T22:57:25.123Z,6.52
2022-12-01T22:59:54.196Z,6.49
2022-12-01T23:02:23.004Z,6.49
2022-12-01T23:05:14.520Z,6.52
2022-12-01T23:07:43.681Z,6.56
2022-12-01T23:10:21.149Z,6.57
2022-12-01T23:12:52.228Z,6.60
2022-12-01T23:15:41.141Z,6.67
2022-12-01T23:18:22.365Z,6.68
2022-12-01T23:20:53.886Z,6.70
2022-12-01T23:23:27.009Z,6.70
2022-12-01T23:25:55.903Z,6.65
2022-12-01T23:28:25.241Z,6.61
2022-12-01T23:30:57.104Z,6.52
2022-12-01T23:33:35.717Z,6.47
2022-12-01T23:36:11.859Z,6.46
2022-12-01T23:38:43.859Z,6.44
2022-12-01T23:41:33.549Z,6.41
2022-12-01T23:44:12.328Z,6.39
2022-12-01T23:46:40.170Z,6.38
2022-12-01T23:49:15.737Z,6.37
2022-12-01T23:51:51.621Z,6.32
2022-12-01T23:54:30.075Z,6.31
2022-12-01T23:57:09.952Z,6.31
2022-12-01T23:59:38.600Z,6.31
